Monument, Colorado
Current Conditions -  °F | °C
As of 3:58 PM on Saturday 25 Oct 2014 (Local Time) from KAFF Reporting Station
Clear Clear  
Wind Chill: 75°   Ceiling: Unl
Heat Index: 75°   Visibility: 10mi
Dew Point: 14°   Wind: 10mph
Humidity: 10%   Direction: 130°SE
Pressure: 30.17"   Gusts: 18mph
Location:  39.09°N, 104.87°W
Report Text: KAFF 252158Z AUTO 13009G16KT 10SM CLR 24/M10 A3017 RMK AO2 SLP141 T02391098
Loading
Personal Weather Stations






























Interactive Weather Map
Tropical Storm Tracking
New forecast layout! Learn more

10-Day Weather Forecast

Advertisements
Track Severe Weather on mobile